createdAt,value
2022-08-24T00:01:40.539Z,110.90
2022-08-24T00:04:32.024Z,112.28
2022-08-24T00:07:27.388Z,113.72
2022-08-24T00:10:17.692Z,112.45
2022-08-24T00:13:06.301Z,112.00
2022-08-24T00:15:55.209Z,109.45
2022-08-24T00:18:48.271Z,111.38
2022-08-24T00:21:36.845Z,111.75
2022-08-24T00:24:25.678Z,110.85
2022-08-24T00:27:14.431Z,111.45
2022-08-24T00:30:04.313Z,109.95
2022-08-24T00:32:54.423Z,108.60
2022-08-24T00:35:44.595Z,108.47
2022-08-24T00:38:35.655Z,109.47
2022-08-24T00:41:24.998Z,108.00
2022-08-24T00:44:15.627Z,107.40
2022-08-24T00:47:12.635Z,107.75
2022-08-24T00:50:06.223Z,107.78
2022-08-24T00:53:01.167Z,111.43
2022-08-24T00:55:53.147Z,108.53
2022-08-24T00:58:47.331Z,107.78
2022-08-24T01:01:47.483Z,106.38
2022-08-24T01:04:42.386Z,104.53
2022-08-24T01:07:32.158Z,103.93
2022-08-24T01:10:25.951Z,103.28
2022-08-24T01:13:16.157Z,102.00
2022-08-24T01:16:08.502Z,100.88
2022-08-24T01:18:56.022Z,101.82
2022-08-24T01:21:54.527Z,99.43
2022-08-24T01:24:44.997Z,102.35
2022-08-24T01:27:36.517Z,98.82
2022-08-24T01:30:30.391Z,101.13
2022-08-24T01:33:24.888Z,101.55
2022-08-24T01:36:21.153Z,101.63
2022-08-24T01:39:20.763Z,103.88
2022-08-24T01:42:11.838Z,97.47
2022-08-24T01:45:04.079Z,98.00
2022-08-24T01:47:52.678Z,95.53
2022-08-24T01:50:41.127Z,97.20
2022-08-24T01:53:30.921Z,96.32
2022-08-24T01:56:19.377Z,95.65
2022-08-24T01:59:12.569Z,96.50
2022-08-24T02:02:07.829Z,95.70
2022-08-24T02:04:56.489Z,95.28
2022-08-24T02:07:46.013Z,94.78
2022-08-24T02:10:35.445Z,94.22
2022-08-24T02:13:25.017Z,93.95
2022-08-24T02:16:15.383Z,93.85
2022-08-24T02:19:03.959Z,93.95
2022-08-24T02:21:53.435Z,93.30
2022-08-24T02:24:42.008Z,91.28
2022-08-24T02:27:30.819Z,90.03
2022-08-24T02:30:19.839Z,92.05
2022-08-24T02:33:09.789Z,90.00
2022-08-24T02:35:58.383Z,89.85
2022-08-24T02:38:46.892Z,90.57
2022-08-24T02:41:39.537Z,91.50
2022-08-24T02:44:28.289Z,91.32
2022-08-24T02:47:17.707Z,93.68
2022-08-24T02:50:12.080Z,92.03
2022-08-24T02:53:00.529Z,90.15
2022-08-24T02:55:49.752Z,90.47
2022-08-24T02:58:39.299Z,89.90
2022-08-24T03:01:30.409Z,91.40
2022-08-24T03:04:20.887Z,90.55
2022-08-24T03:07:10.858Z,91.45
2022-08-24T03:09:59.410Z,91.88
2022-08-24T03:12:48.254Z,91.47
2022-08-24T03:15:36.698Z,92.60
2022-08-24T03:18:26.689Z,93.55
2022-08-24T03:21:15.704Z,94.10
2022-08-24T03:24:07.451Z,95.80
2022-08-24T03:26:56.326Z,96.47
2022-08-24T03:29:47.558Z,97.85
2022-08-24T03:32:38.906Z,97.53
2022-08-24T03:35:27.634Z,99.53
2022-08-24T03:38:16.140Z,99.60
2022-08-24T03:41:06.414Z,101.00
2022-08-24T03:43:56.504Z,101.95
2022-08-24T03:46:46.450Z,101.50
2022-08-24T03:49:35.013Z,102.13
2022-08-24T03:52:23.646Z,104.70
2022-08-24T03:55:14.670Z,103.13
2022-08-24T03:58:04.809Z,104.90
2022-08-24T04:00:54.802Z,104.60
2022-08-24T04:03:46.107Z,106.32
2022-08-24T04:06:35.788Z,104.80
2022-08-24T04:09:24.610Z,104.18
2022-08-24T04:12:13.050Z,103.65
2022-08-24T04:15:03.463Z,103.68
2022-08-24T04:17:52.500Z,105.68
2022-08-24T04:20:42.355Z,106.57
2022-08-24T04:23:47.074Z,107.80
2022-08-24T04:26:45.298Z,110.18
2022-08-24T04:29:36.109Z,110.25
2022-08-24T04:32:25.958Z,107.40
2022-08-24T04:35:16.311Z,108.22
2022-08-24T04:38:04.984Z,108.60
2022-08-24T04:40:54.086Z,108.60
2022-08-24T04:43:45.361Z,107.75
2022-08-24T04:46:35.479Z,107.65
2022-08-24T04:49:25.402Z,108.05
2022-08-24T04:52:13.794Z,106.00
2022-08-24T04:55:04.124Z,107.18
2022-08-24T04:57:56.487Z,106.90
2022-08-24T05:00:45.945Z,106.28
2022-08-24T05:03:35.351Z,104.75
2022-08-24T05:06:26.732Z,104.28
2022-08-24T05:09:15.145Z,101.57
2022-08-24T05:12:05.635Z,102.15
2022-08-24T05:14:59.113Z,102.70
2022-08-24T05:17:51.329Z,100.38
2022-08-24T05:20:41.715Z,101.50
2022-08-24T05:23:31.663Z,101.20
2022-08-24T05:26:24.043Z,99.07
2022-08-24T05:29:12.701Z,99.55
2022-08-24T05:32:06.393Z,98.97
2022-08-24T05:34:54.984Z,99.55
2022-08-24T05:37:44.549Z,99.97
2022-08-24T05:40:38.384Z,97.70
2022-08-24T05:43:26.979Z,96.07
2022-08-24T05:46:17.035Z,92.93
2022-08-24T05:49:08.729Z,87.53
2022-08-24T05:51:57.105Z,83.07
2022-08-24T05:54:47.035Z,80.63
2022-08-24T05:57:38.865Z,80.50
2022-08-24T06:00:45.776Z,80.63
2022-08-24T06:03:34.995Z,80.43
2022-08-24T06:06:25.408Z,74.40
2022-08-24T06:09:14.529Z,73.15
2022-08-24T06:12:03.563Z,69.32
2022-08-24T06:14:54.012Z,67.68
2022-08-24T06:17:44.926Z,65.72
2022-08-24T06:20:34.308Z,63.35
2022-08-24T06:23:23.090Z,60.88
2022-08-24T06:26:37.711Z,62.67
2022-08-24T06:29:26.668Z,60.00
2022-08-24T06:32:20.538Z,59.05
2022-08-24T06:35:11.465Z,56.65
2022-08-24T06:38:00.220Z,55.53
2022-08-24T06:40:48.754Z,55.78
2022-08-24T06:43:37.598Z,55.03
2022-08-24T06:46:33.117Z,55.13
2022-08-24T06:49:23.858Z,53.65
2022-08-24T06:52:12.353Z,54.40
2022-08-24T06:55:01.190Z,54.58
2022-08-24T06:57:52.484Z,52.10
2022-08-24T07:00:42.071Z,51.47
2022-08-24T07:03:30.693Z,51.15
2022-08-24T07:06:36.911Z,51.25
2022-08-24T07:09:25.889Z,51.38
2022-08-24T07:12:14.352Z,50.70
2022-08-24T07:15:03.195Z,48.50
2022-08-24T07:17:57.832Z,47.67
2022-08-24T07:20:46.907Z,47.33
2022-08-24T07:23:58.391Z,45.92
2022-08-24T07:26:47.883Z,44.53
2022-08-24T07:29:50.471Z,43.38
2022-08-24T07:32:45.237Z,42.40
2022-08-24T07:35:34.837Z,41.22
2022-08-24T07:38:23.681Z,39.92
2022-08-24T07:41:38.294Z,40.25
2022-08-24T07:44:23.551Z,41.15
2022-08-24T07:47:37.034Z,36.03
2022-08-24T07:50:23.335Z,32.60
2022-08-24T07:53:15.020Z,31.80
2022-08-24T07:56:07.806Z,30.33
2022-08-24T07:58:59.403Z,28.58
2022-08-24T08:01:48.148Z,30.48
2022-08-24T08:04:36.604Z,35.38
2022-08-24T08:07:25.611Z,27.90
2022-08-24T08:10:14.452Z,29.75
2022-08-24T08:13:03.679Z,26.77
2022-08-24T08:15:59.334Z,30.00
2022-08-24T08:18:56.398Z,28.13
2022-08-24T08:22:12.737Z,28.50
2022-08-24T08:25:34.956Z,26.83
2022-08-24T08:28:35.471Z,25.90
2022-08-24T08:31:26.026Z,26.58
2022-08-24T08:34:16.388Z,27.13
2022-08-24T08:37:05.585Z,29.38
2022-08-24T08:39:54.864Z,28.63
2022-08-24T08:42:58.160Z,26.02
2022-08-24T08:46:14.245Z,26.67
2022-08-24T08:49:51.271Z,25.42
2022-08-24T08:53:17.665Z,25.02
2022-08-24T08:56:21.731Z,23.52
2022-08-24T08:59:22.185Z,24.63
2022-08-24T09:02:35.610Z,25.38
2022-08-24T09:05:59.893Z,23.88
2022-08-24T09:09:08.361Z,25.67
2022-08-24T09:12:07.857Z,29.50
2022-08-24T09:15:16.838Z,25.48
2022-08-24T09:18:17.013Z,29.00
2022-08-24T09:21:31.385Z,27.92
2022-08-24T09:24:43.285Z,26.35
2022-08-24T09:28:02.175Z,32.80
2022-08-24T09:31:06.393Z,29.30
2022-08-24T09:34:10.164Z,21.92
2022-08-24T09:37:12.784Z,28.73
2022-08-24T09:40:17.196Z,32.17
2022-08-24T09:43:36.557Z,33.65
2022-08-24T09:47:08.840Z,25.58
2022-08-24T09:50:36.338Z,28.65
2022-08-24T09:54:18.263Z,35.08
2022-08-24T09:57:50.415Z,28.67
2022-08-24T10:00:47.724Z,21.77
2022-08-24T10:03:51.935Z,23.98
2022-08-24T10:06:55.688Z,26.77
2022-08-24T10:10:04.610Z,31.85
2022-08-24T10:13:04.738Z,30.80
2022-08-24T10:16:07.403Z,28.33
2022-08-24T10:19:07.901Z,28.00
2022-08-24T10:22:05.610Z,31.35
2022-08-24T10:25:11.458Z,30.48
2022-08-24T10:28:16.882Z,23.25
2022-08-24T10:31:12.178Z,21.25
2022-08-24T10:34:29.001Z,29.33
2022-08-24T10:37:42.302Z,27.88
2022-08-24T10:40:39.899Z,35.20
2022-08-24T10:43:49.036Z,27.83
2022-08-24T10:46:49.321Z,45.10
2022-08-24T10:50:13.739Z,35.50
2022-08-24T10:53:15.503Z,31.42
2022-08-24T10:56:12.011Z,29.48
2022-08-24T10:59:16.395Z,25.17
2022-08-24T11:02:12.725Z,33.50
2022-08-24T11:05:08.368Z,35.55
2022-08-24T11:08:03.413Z,28.45
2022-08-24T11:11:14.483Z,26.98
2022-08-24T11:14:10.330Z,26.17
2022-08-24T11:17:17.803Z,30.85
2022-08-24T11:20:29.876Z,32.95
2022-08-24T11:23:29.596Z,33.47
2022-08-24T11:26:30.420Z,28.38
2022-08-24T11:29:23.104Z,38.75
2022-08-24T11:32:27.701Z,28.52
2022-08-24T11:35:27.574Z,28.42
2022-08-24T11:38:27.151Z,31.75
2022-08-24T11:41:26.992Z,24.83
2022-08-24T11:44:36.400Z,29.52
2022-08-24T11:47:51.928Z,28.77
2022-08-24T11:50:50.404Z,32.55
2022-08-24T11:53:46.766Z,29.10
2022-08-24T11:56:44.555Z,31.67
2022-08-24T11:59:43.286Z,38.60
2022-08-24T12:02:37.598Z,32.92
2022-08-24T12:05:32.055Z,35.28
2022-08-24T12:08:28.731Z,37.47
2022-08-24T12:11:25.273Z,31.52
2022-08-24T12:14:23.114Z,26.27
2022-08-24T12:17:20.532Z,29.65
2022-08-24T12:20:23.252Z,30.23
2022-08-24T12:23:17.038Z,30.65
2022-08-24T12:26:10.911Z,36.22
2022-08-24T12:29:03.051Z,28.90
2022-08-24T12:31:56.342Z,29.02
2022-08-24T12:34:59.106Z,28.08
2022-08-24T12:37:52.303Z,35.60
2022-08-24T12:40:46.242Z,25.25
2022-08-24T12:43:49.553Z,31.15
2022-08-24T12:46:45.222Z,35.83
2022-08-24T12:49:50.382Z,24.30
2022-08-24T12:53:15.265Z,25.00
2022-08-24T12:56:47.224Z,33.38
2022-08-24T12:59:43.800Z,33.55
2022-08-24T13:02:47.638Z,36.25
2022-08-24T13:05:45.141Z,30.65
2022-08-24T13:08:38.406Z,40.35
2022-08-24T13:11:32.415Z,28.00
2022-08-24T13:14:24.264Z,27.10
2022-08-24T13:17:14.682Z,29.10
2022-08-24T13:20:20.193Z,30.20
2022-08-24T13:23:18.857Z,28.10
2022-08-24T13:26:26.711Z,26.05
2022-08-24T13:29:17.607Z,28.83
2022-08-24T13:32:08.355Z,37.97
2022-08-24T13:34:59.198Z,32.33
2022-08-24T13:38:27.087Z,30.95
2022-08-24T13:41:30.355Z,30.38
2022-08-24T13:44:26.765Z,30.98
2022-08-24T13:47:20.967Z,31.02
2022-08-24T13:50:15.589Z,33.28
2022-08-24T13:53:31.120Z,38.22
2022-08-24T13:56:32.758Z,40.10
2022-08-24T13:59:53.587Z,37.53
2022-08-24T14:02:59.840Z,31.83
2022-08-24T14:05:52.121Z,33.05
2022-08-24T14:08:51.548Z,23.40
2022-08-24T14:11:56.024Z,31.58
2022-08-24T14:15:03.693Z,32.80
2022-08-24T14:18:03.545Z,28.70
2022-08-24T14:21:09.867Z,34.92
2022-08-24T14:24:04.109Z,25.25
2022-08-24T14:27:08.281Z,35.33
2022-08-24T14:30:35.598Z,35.20
2022-08-24T14:33:30.739Z,33.67
2022-08-24T14:36:22.099Z,37.60
2022-08-24T14:39:20.947Z,40.45
2022-08-24T14:42:18.233Z,35.60
2022-08-24T14:45:10.454Z,36.03
2022-08-24T14:48:05.967Z,31.25
2022-08-24T14:51:02.131Z,29.80
2022-08-24T14:54:00.651Z,32.70
2022-08-24T14:57:00.431Z,31.00
2022-08-24T15:00:01.740Z,29.20
2022-08-24T15:03:25.973Z,30.17
2022-08-24T15:06:27.826Z,32.15
2022-08-24T15:09:24.120Z,39.05
2022-08-24T15:12:21.336Z,32.58
2022-08-24T15:15:19.124Z,41.53
2022-08-24T15:18:34.863Z,30.95
2022-08-24T15:21:34.635Z,40.78
2022-08-24T15:24:36.948Z,32.88
2022-08-24T15:27:34.683Z,24.85
2022-08-24T15:30:28.362Z,31.52
2022-08-24T15:33:19.629Z,34.28
2022-08-24T15:36:12.059Z,30.77
2022-08-24T15:39:01.727Z,27.98
2022-08-24T15:41:50.593Z,39.33
2022-08-24T15:44:41.228Z,38.55
2022-08-24T15:47:33.240Z,24.52
2022-08-24T15:50:25.287Z,27.13
2022-08-24T15:53:30.423Z,15.23
2022-08-24T15:56:36.109Z,8.40
2022-08-24T15:59:29.748Z,18.83
2022-08-24T16:02:28.647Z,15.02
2022-08-24T16:05:38.350Z,9.63
2022-08-24T16:08:26.768Z,12.18
2022-08-24T16:11:27.577Z,12.65
2022-08-24T16:14:26.152Z,13.10
2022-08-24T16:17:27.744Z,13.48
2022-08-24T16:20:32.780Z,14.70
2022-08-24T16:23:28.378Z,11.48
2022-08-24T16:26:23.939Z,12.15
2022-08-24T16:29:45.219Z,12.10
2022-08-24T16:32:49.816Z,13.52
2022-08-24T16:35:40.959Z,11.73
2022-08-24T16:38:31.347Z,16.90
2022-08-24T16:41:22.385Z,13.35
2022-08-24T16:44:11.779Z,19.85
2022-08-24T16:47:00.178Z,19.52
2022-08-24T16:49:49.212Z,22.58
2022-08-24T16:52:39.006Z,16.58
2022-08-24T16:55:28.638Z,15.05
2022-08-24T16:58:17.743Z,17.73
2022-08-24T17:01:06.403Z,22.33
2022-08-24T17:03:55.429Z,14.35
2022-08-24T17:06:44.484Z,13.32
2022-08-24T17:09:36.649Z,14.70
2022-08-24T17:12:27.097Z,15.57
2022-08-24T17:15:16.342Z,11.02
2022-08-24T17:18:07.551Z,11.77
2022-08-24T17:20:55.935Z,17.20
2022-08-24T17:23:44.631Z,13.07
2022-08-24T17:26:34.818Z,16.05
2022-08-24T17:29:24.116Z,16.60
2022-08-24T17:32:13.140Z,17.23
2022-08-24T17:35:03.259Z,13.10
2022-08-24T17:37:53.730Z,15.55
2022-08-24T17:40:42.042Z,21.40
2022-08-24T17:43:32.152Z,20.25
2022-08-24T17:46:22.092Z,29.10
2022-08-24T17:49:12.352Z,15.85
2022-08-24T17:52:00.806Z,14.68
2022-08-24T17:54:49.300Z,15.20
2022-08-24T17:57:38.785Z,24.08
2022-08-24T18:00:28.845Z,17.92
2022-08-24T18:03:17.417Z,19.20
2022-08-24T18:06:06.138Z,23.48
2022-08-24T18:08:56.803Z,21.77
2022-08-24T18:11:45.293Z,21.08
2022-08-24T18:14:34.698Z,21.33
2022-08-24T18:17:31.465Z,21.35
2022-08-24T18:20:24.180Z,23.33
2022-08-24T18:23:13.066Z,23.25
2022-08-24T18:26:06.094Z,24.05
2022-08-24T18:28:55.662Z,25.83
2022-08-24T18:31:44.751Z,25.60
2022-08-24T18:34:35.119Z,25.10
2022-08-24T18:37:24.330Z,25.27
2022-08-24T18:40:20.392Z,24.85
2022-08-24T18:43:10.294Z,26.17
2022-08-24T18:45:59.077Z,26.17
2022-08-24T18:48:47.548Z,26.13
2022-08-24T18:51:38.395Z,24.95
2022-08-24T18:54:31.659Z,25.15
2022-08-24T18:57:20.664Z,26.38
2022-08-24T19:00:11.965Z,27.30
2022-08-24T19:03:05.685Z,26.63
2022-08-24T19:05:54.412Z,26.88
2022-08-24T19:08:44.229Z,27.52
2022-08-24T19:11:32.590Z,28.05
2022-08-24T19:14:21.096Z,27.50
2022-08-24T19:17:09.583Z,27.08
2022-08-24T19:19:58.413Z,25.73
2022-08-24T19:22:47.746Z,26.27
2022-08-24T19:25:38.915Z,27.33
2022-08-24T19:28:27.907Z,28.30
2022-08-24T19:31:16.663Z,28.48
2022-08-24T19:34:05.439Z,28.45
2022-08-24T19:36:55.018Z,28.60
2022-08-24T19:39:43.612Z,29.52
2022-08-24T19:42:36.779Z,28.65
2022-08-24T19:45:44.980Z,29.17
2022-08-24T19:48:34.873Z,28.65
2022-08-24T19:51:23.401Z,29.48
2022-08-24T19:54:12.093Z,28.65
2022-08-24T19:57:02.012Z,28.88
2022-08-24T19:59:52.597Z,28.20
2022-08-24T20:02:41.083Z,32.45
2022-08-24T20:05:30.117Z,30.85
2022-08-24T20:08:20.089Z,30.35
2022-08-24T20:11:09.402Z,29.40
2022-08-24T20:13:57.761Z,29.48
2022-08-24T20:16:47.624Z,30.05
2022-08-24T20:19:40.173Z,29.70
2022-08-24T20:22:29.326Z,30.98
2022-08-24T20:25:18.725Z,30.33
2022-08-24T20:31:19.038Z,30.50
2022-08-24T20:34:08.859Z,29.80
2022-08-24T20:36:58.674Z,29.88
2022-08-24T20:39:47.080Z,31.90
2022-08-24T20:42:35.591Z,31.75
2022-08-24T20:45:23.960Z,31.92
2022-08-24T20:48:13.827Z,33.70
2022-08-24T20:51:03.657Z,32.67
2022-08-24T20:53:52.092Z,33.55
2022-08-24T20:56:40.523Z,35.13
2022-08-24T20:59:29.042Z,34.50
2022-08-24T21:02:17.420Z,35.55
2022-08-24T21:05:06.742Z,35.70
2022-08-24T21:07:58.042Z,36.70
2022-08-24T21:10:47.738Z,38.13
2022-08-24T21:13:36.192Z,37.55
2022-08-24T21:16:24.886Z,37.38
2022-08-24T21:19:17.845Z,36.65
2022-08-24T21:22:06.402Z,37.30
2022-08-24T21:24:56.220Z,39.60
2022-08-24T21:27:47.596Z,39.25
2022-08-24T21:30:36.032Z,39.13
2022-08-24T21:33:42.061Z,40.70
2022-08-24T21:36:31.926Z,41.85
2022-08-24T21:39:20.486Z,42.85
2022-08-24T21:42:10.773Z,43.72
2022-08-24T21:44:59.187Z,42.75
2022-08-24T21:47:47.682Z,42.95
2022-08-24T21:50:36.223Z,42.72
2022-08-24T21:53:28.439Z,43.58
2022-08-24T21:56:23.612Z,50.83
2022-08-24T21:59:13.821Z,46.15
2022-08-24T22:02:04.174Z,44.17
2022-08-24T22:04:56.791Z,45.70
2022-08-24T22:07:45.808Z,44.50
2022-08-24T22:10:34.162Z,45.55
2022-08-24T22:13:22.597Z,46.38
2022-08-24T22:16:13.422Z,46.88
2022-08-24T22:19:02.215Z,47.78
2022-08-24T22:21:50.815Z,47.38
2022-08-24T22:24:39.166Z,48.10
2022-08-24T22:27:27.654Z,47.47
2022-08-24T22:30:18.414Z,48.05
2022-08-24T22:33:09.357Z,48.63
2022-08-24T22:35:57.849Z,48.33
2022-08-24T22:38:46.455Z,48.70
2022-08-24T22:41:35.355Z,49.75
2022-08-24T22:44:24.283Z,50.80
2022-08-24T22:47:13.401Z,51.13
2022-08-24T22:50:05.648Z,51.47
2022-08-24T22:52:54.559Z,50.15
2022-08-24T22:55:43.067Z,51.28
2022-08-24T22:58:31.571Z,51.30
2022-08-24T23:01:21.864Z,50.92
2022-08-24T23:04:13.117Z,51.83
2022-08-24T23:07:03.890Z,52.78
2022-08-24T23:09:52.339Z,52.78
2022-08-24T23:12:40.841Z,53.45
2022-08-24T23:15:29.514Z,53.55
2022-08-24T23:18:31.990Z,55.42
2022-08-24T23:21:21.039Z,55.38
2022-08-24T23:24:13.213Z,55.30
2022-08-24T23:27:02.681Z,55.53
2022-08-24T23:29:51.328Z,56.95
2022-08-24T23:32:40.827Z,57.63
2022-08-24T23:35:29.621Z,57.38
2022-08-24T23:38:18.323Z,57.30
2022-08-24T23:41:12.685Z,57.20
2022-08-24T23:44:02.614Z,56.40
2022-08-24T23:46:51.447Z,56.38
2022-08-24T23:49:41.801Z,57.00
2022-08-24T23:52:30.747Z,58.08
2022-08-24T23:55:21.082Z,59.33
2022-08-24T23:58:11.473Z,58.95
